sensor_id;sensor_type;location;lat;lon;timestamp;pressure;altitude;pressure_sealevel;temperature;humidity
18813;BME280;9534;51.140;6.296;2022-08-25T00:01:49;100603.00;;;23.22;100.00
18813;BME280;9534;51.140;6.296;2022-08-25T00:05:56;100600.66;;;23.34;100.00
18813;BME280;9534;51.140;6.296;2022-08-25T00:09:59;100601.16;;;23.41;100.00
18813;BME280;9534;51.140;6.296;2022-08-25T00:14:07;100603.44;;;23.34;100.00
18813;BME280;9534;51.140;6.296;2022-08-25T00:18:11;100605.66;;;23.37;100.00
18813;BME280;9534;51.140;6.296;2022-08-25T00:22:21;100604.09;;;23.26;100.00
18813;BME280;9534;51.140;6.296;2022-08-25T00:26:24;100606.94;;;23.16;100.00
18813;BME280;9534;51.140;6.296;2022-08-25T00:30:28;100607.19;;;22.91;100.00
18813;BME280;9534;51.140;6.296;2022-08-25T00:34:33;100605.78;;;22.88;100.00
18813;BME280;9534;51.140;6.296;2022-08-25T00:38:39;100595.75;;;22.87;100.00
18813;BME280;9534;51.140;6.296;2022-08-25T00:42:42;100609.66;;;22.92;100.00
18813;BME280;9534;51.140;6.296;2022-08-25T00:46:47;100606.50;;;23.04;100.00
18813;BME280;9534;51.140;6.296;2022-08-25T00:50:51;100615.50;;;22.96;100.00
18813;BME280;9534;51.140;6.296;2022-08-25T00:54:59;100617.81;;;22.89;100.00
18813;BME280;9534;51.140;6.296;2022-08-25T00:59:09;100610.56;;;22.88;100.00
18813;BME280;9534;51.140;6.296;2022-08-25T01:03:13;100616.38;;;22.91;100.00
18813;BME280;9534;51.140;6.296;2022-08-25T01:07:18;100607.84;;;22.78;100.00
18813;BME280;9534;51.140;6.296;2022-08-25T01:11:24;100620.75;;;22.69;100.00
18813;BME280;9534;51.140;6.296;2022-08-25T01:15:28;100610.69;;;22.68;100.00
18813;BME280;9534;51.140;6.296;2022-08-25T01:19:32;100619.13;;;22.58;100.00
18813;BME280;9534;51.140;6.296;2022-08-25T01:23:36;100620.03;;;22.48;100.00
18813;BME280;9534;51.140;6.296;2022-08-25T01:27:39;100618.38;;;22.48;100.00
18813;BME280;9534;51.140;6.296;2022-08-25T01:31:42;100613.03;;;22.51;100.00
18813;BME280;9534;51.140;6.296;2022-08-25T01:35:46;100613.66;;;22.38;100.00
18813;BME280;9534;51.140;6.296;2022-08-25T01:39:51;100611.97;;;22.37;100.00
18813;BME280;9534;51.140;6.296;2022-08-25T01:43:55;100611.59;;;22.10;100.00
18813;BME280;9534;51.140;6.296;2022-08-25T01:47:58;100616.75;;;21.73;100.00
18813;BME280;9534;51.140;6.296;2022-08-25T01:52:05;100609.50;;;21.52;100.00
18813;BME280;9534;51.140;6.296;2022-08-25T01:56:13;100611.19;;;21.43;100.00
18813;BME280;9534;51.140;6.296;2022-08-25T02:00:18;100611.19;;;21.43;100.00
18813;BME280;9534;51.140;6.296;2022-08-25T02:04:23;100620.41;;;21.49;100.00
18813;BME280;9534;51.140;6.296;2022-08-25T02:08:27;100622.31;;;21.53;100.00
18813;BME280;9534;51.140;6.296;2022-08-25T02:18:26;100606.75;;;21.37;100.00
18813;BME280;9534;51.140;6.296;2022-08-25T02:22:29;100600.13;;;21.33;100.00
18813;BME280;9534;51.140;6.296;2022-08-25T02:26:32;100604.00;;;21.32;100.00
18813;BME280;9534;51.140;6.296;2022-08-25T02:30:40;100604.84;;;21.28;100.00
18813;BME280;9534;51.140;6.296;2022-08-25T02:34:45;100606.25;;;21.20;100.00
18813;BME280;9534;51.140;6.296;2022-08-25T02:38:49;100600.13;;;21.04;100.00
18813;BME280;9534;51.140;6.296;2022-08-25T02:42:52;100589.28;;;20.97;100.00
18813;BME280;9534;51.140;6.296;2022-08-25T02:46:56;100593.47;;;21.00;100.00
18813;BME280;9534;51.140;6.296;2022-08-25T02:51:01;100593.47;;;20.95;100.00
18813;BME280;9534;51.140;6.296;2022-08-25T02:55:09;100598.44;;;20.78;100.00
18813;BME280;9534;51.140;6.296;2022-08-25T02:59:15;100594.22;;;20.40;100.00
18813;BME280;9534;51.140;6.296;2022-08-25T03:03:20;100596.66;;;20.17;100.00
18813;BME280;9534;51.140;6.296;2022-08-25T03:07:24;100592.69;;;19.98;100.00
18813;BME280;9534;51.140;6.296;2022-08-25T03:11:30;100585.97;;;19.89;100.00
18813;BME280;9534;51.140;6.296;2022-08-25T03:15:33;100584.22;;;19.68;100.00
18813;BME280;9534;51.140;6.296;2022-08-25T03:19:38;100583.06;;;19.54;100.00
18813;BME280;9534;51.140;6.296;2022-08-25T03:23:44;100585.28;;;19.52;100.00
18813;BME280;9534;51.140;6.296;2022-08-25T03:27:47;100587.41;;;19.40;100.00
18813;BME280;9534;51.140;6.296;2022-08-25T03:31:51;100577.97;;;19.36;100.00
18813;BME280;9534;51.140;6.296;2022-08-25T03:35:55;100565.22;;;19.40;100.00
18813;BME280;9534;51.140;6.296;2022-08-25T03:40:00;100578.09;;;19.66;100.00
18813;BME280;9534;51.140;6.296;2022-08-25T03:44:06;100578.16;;;19.76;100.00
18813;BME280;9534;51.140;6.296;2022-08-25T03:48:10;100564.78;;;19.63;100.00
18813;BME280;9534;51.140;6.296;2022-08-25T03:52:15;100554.25;;;19.75;100.00
18813;BME280;9534;51.140;6.296;2022-08-25T03:56:20;100542.66;;;19.93;100.00
18813;BME280;9534;51.140;6.296;2022-08-25T04:00:24;100541.03;;;20.07;100.00
18813;BME280;9534;51.140;6.296;2022-08-25T04:04:28;100543.81;;;20.07;100.00
18813;BME280;9534;51.140;6.296;2022-08-25T04:08:32;100554.84;;;19.87;100.00
18813;BME280;9534;51.140;6.296;2022-08-25T04:12:37;100558.47;;;19.83;100.00
18813;BME280;9534;51.140;6.296;2022-08-25T04:16:40;100548.72;;;19.80;100.00
18813;BME280;9534;51.140;6.296;2022-08-25T04:20:43;100550.47;;;20.01;100.00
18813;BME280;9534;51.140;6.296;2022-08-25T04:24:48;100544.69;;;20.17;100.00
18813;BME280;9534;51.140;6.296;2022-08-25T04:28:53;100544.44;;;20.24;100.00
18813;BME280;9534;51.140;6.296;2022-08-25T04:32:56;100543.91;;;20.32;100.00
18813;BME280;9534;51.140;6.296;2022-08-25T04:37:01;100543.06;;;20.36;100.00
18813;BME280;9534;51.140;6.296;2022-08-25T04:41:08;100536.13;;;20.29;100.00
18813;BME280;9534;51.140;6.296;2022-08-25T04:45:13;100542.78;;;20.23;100.00
18813;BME280;9534;51.140;6.296;2022-08-25T04:49:17;100534.97;;;20.15;100.00
18813;BME280;9534;51.140;6.296;2022-08-25T04:53:20;100529.41;;;20.10;100.00
18813;BME280;9534;51.140;6.296;2022-08-25T04:57:23;100530.00;;;20.22;100.00
18813;BME280;9534;51.140;6.296;2022-08-25T05:01:28;100531.66;;;20.33;100.00
18813;BME280;9534;51.140;6.296;2022-08-25T05:05:34;100526.94;;;20.33;100.00
18813;BME280;9534;51.140;6.296;2022-08-25T05:09:38;100531.66;;;20.28;100.00
18813;BME280;9534;51.140;6.296;2022-08-25T05:13:42;100521.94;;;20.30;100.00
18813;BME280;9534;51.140;6.296;2022-08-25T05:17:53;100527.78;;;20.29;100.00
18813;BME280;9534;51.140;6.296;2022-08-25T05:21:56;100518.34;;;20.35;100.00
18813;BME280;9534;51.140;6.296;2022-08-25T05:26:02;100520.00;;;20.36;100.00
18813;BME280;9534;51.140;6.296;2022-08-25T05:30:07;100524.44;;;20.27;100.00
18813;BME280;9534;51.140;6.296;2022-08-25T05:34:11;100531.13;;;20.36;100.00
18813;BME280;9534;51.140;6.296;2022-08-25T05:38:15;100525.84;;;20.44;100.00
18813;BME280;9534;51.140;6.296;2022-08-25T05:42:18;100527.78;;;20.59;100.00
18813;BME280;9534;51.140;6.296;2022-08-25T05:46:23;100526.09;;;20.63;100.00
18813;BME280;9534;51.140;6.296;2022-08-25T05:50:28;100514.97;;;20.73;100.00
18813;BME280;9534;51.140;6.296;2022-08-25T05:54:31;100530.28;;;20.90;100.00
18813;BME280;9534;51.140;6.296;2022-08-25T05:58:35;100538.34;;;21.07;100.00
18813;BME280;9534;51.140;6.296;2022-08-25T06:02:39;100535.81;;;21.20;100.00
18813;BME280;9534;51.140;6.296;2022-08-25T06:06:48;100531.03;;;21.35;100.00
18813;BME280;9534;51.140;6.296;2022-08-25T06:10:54;100532.09;;;21.54;100.00
18813;BME280;9534;51.140;6.296;2022-08-25T06:14:58;100538.47;;;21.70;100.00
18813;BME280;9534;51.140;6.296;2022-08-25T06:19:01;100536.47;;;21.80;100.00
18813;BME280;9534;51.140;6.296;2022-08-25T06:23:06;100545.88;;;21.94;100.00
18813;BME280;9534;51.140;6.296;2022-08-25T06:27:09;100546.88;;;22.18;100.00
18813;BME280;9534;51.140;6.296;2022-08-25T06:31:12;100538.88;;;22.40;100.00
18813;BME280;9534;51.140;6.296;2022-08-25T06:35:18;100548.84;;;22.56;100.00
18813;BME280;9534;51.140;6.296;2022-08-25T06:39:22;100536.13;;;22.73;100.00
18813;BME280;9534;51.140;6.296;2022-08-25T06:43:26;100537.94;;;22.93;100.00
18813;BME280;9534;51.140;6.296;2022-08-25T06:47:29;100543.44;;;23.03;100.00
18813;BME280;9534;51.140;6.296;2022-08-25T06:51:32;100550.44;;;23.29;100.00
18813;BME280;9534;51.140;6.296;2022-08-25T06:55:38;100547.59;;;23.34;100.00
18813;BME280;9534;51.140;6.296;2022-08-25T06:59:42;100553.50;;;23.56;100.00
18813;BME280;9534;51.140;6.296;2022-08-25T07:03:45;100546.81;;;23.75;100.00
18813;BME280;9534;51.140;6.296;2022-08-25T07:07:48;100536.81;;;23.92;100.00
18813;BME280;9534;51.140;6.296;2022-08-25T07:11:54;100537.75;;;24.06;100.00
18813;BME280;9534;51.140;6.296;2022-08-25T07:15:58;100537.47;;;24.26;100.00
18813;BME280;9534;51.140;6.296;2022-08-25T07:20:04;100527.78;;;24.37;100.00
18813;BME280;9534;51.140;6.296;2022-08-25T07:24:10;100534.78;;;24.58;100.00
18813;BME280;9534;51.140;6.296;2022-08-25T07:28:16;100542.28;;;24.76;100.00
18813;BME280;9534;51.140;6.296;2022-08-25T07:32:19;100532.84;;;25.04;100.00
18813;BME280;9534;51.140;6.296;2022-08-25T07:36:22;100528.91;;;25.18;100.00
18813;BME280;9534;51.140;6.296;2022-08-25T07:40:30;100529.00;;;25.45;100.00
18813;BME280;9534;51.140;6.296;2022-08-25T07:44:35;100530.03;;;25.76;100.00
18813;BME280;9534;51.140;6.296;2022-08-25T07:48:38;100536.69;;;25.80;100.00
18813;BME280;9534;51.140;6.296;2022-08-25T07:52:41;100546.97;;;25.85;100.00
18813;BME280;9534;51.140;6.296;2022-08-25T07:56:52;100540.38;;;26.30;100.00
18813;BME280;9534;51.140;6.296;2022-08-25T08:00:57;100536.75;;;27.08;96.83
18813;BME280;9534;51.140;6.296;2022-08-25T08:05:00;100537.84;;;27.90;94.81
18813;BME280;9534;51.140;6.296;2022-08-25T08:09:03;100540.38;;;28.00;90.94
18813;BME280;9534;51.140;6.296;2022-08-25T08:13:07;100539.09;;;28.31;89.99
18813;BME280;9534;51.140;6.296;2022-08-25T08:17:12;100536.94;;;28.28;91.33
18813;BME280;9534;51.140;6.296;2022-08-25T08:21:19;100529.75;;;29.41;84.63
18813;BME280;9534;51.140;6.296;2022-08-25T08:25:23;100529.19;;;29.93;82.21
18813;BME280;9534;51.140;6.296;2022-08-25T08:29:28;100518.75;;;28.77;86.95
18813;BME280;9534;51.140;6.296;2022-08-25T08:33:34;100522.56;;;28.72;89.48
18813;BME280;9534;51.140;6.296;2022-08-25T08:37:41;100524.03;;;29.95;83.11
18813;BME280;9534;51.140;6.296;2022-08-25T08:42:03;100522.31;;;30.11;81.83
18813;BME280;9534;51.140;6.296;2022-08-25T08:46:21;100520.28;;;30.40;78.62
18813;BME280;9534;51.140;6.296;2022-08-25T08:50:31;100515.72;;;29.15;85.10
18813;BME280;9534;51.140;6.296;2022-08-25T08:54:38;100512.88;;;29.78;83.83
18813;BME280;9534;51.140;6.296;2022-08-25T08:58:45;100509.41;;;29.18;85.95
18813;BME280;9534;51.140;6.296;2022-08-25T09:02:53;100523.31;;;30.35;80.57
18813;BME280;9534;51.140;6.296;2022-08-25T09:07:03;100513.94;;;30.23;80.29
18813;BME280;9534;51.140;6.296;2022-08-25T09:11:17;100509.63;;;30.99;76.80
18813;BME280;9534;51.140;6.296;2022-08-25T09:15:34;100519.22;;;31.62;72.41
18813;BME280;9534;51.140;6.296;2022-08-25T09:20:07;100517.31;;;31.31;69.39
18813;BME280;9534;51.140;6.296;2022-08-25T09:24:35;100517.53;;;31.26;73.19
18813;BME280;9534;51.140;6.296;2022-08-25T09:28:47;100517.78;;;31.00;69.96
18813;BME280;9534;51.140;6.296;2022-08-25T09:32:53;100521.88;;;31.23;72.59
18813;BME280;9534;51.140;6.296;2022-08-25T09:37:06;100515.34;;;30.78;72.75
18813;BME280;9534;51.140;6.296;2022-08-25T09:41:14;100520.63;;;31.33;70.85
18813;BME280;9534;51.140;6.296;2022-08-25T09:45:39;100514.78;;;31.97;65.89
18813;BME280;9534;51.140;6.296;2022-08-25T09:49:46;100519.50;;;33.51;58.62
18813;BME280;9534;51.140;6.296;2022-08-25T09:53:54;100520.03;;;32.98;57.84
18813;BME280;9534;51.140;6.296;2022-08-25T09:57:59;100500.59;;;33.12;59.76
18813;BME280;9534;51.140;6.296;2022-08-25T10:02:22;100492.94;;;33.00;59.86
18813;BME280;9534;51.140;6.296;2022-08-25T10:06:29;100491.31;;;33.42;57.72
18813;BME280;9534;51.140;6.296;2022-08-25T10:10:39;100492.63;;;33.76;56.71
18813;BME280;9534;51.140;6.296;2022-08-25T10:14:47;100478.56;;;32.54;58.16
18813;BME280;9534;51.140;6.296;2022-08-25T10:19:01;100471.28;;;33.08;57.79
18813;BME280;9534;51.140;6.296;2022-08-25T10:23:09;100465.09;;;32.90;58.11
18813;BME280;9534;51.140;6.296;2022-08-25T10:27:21;100463.47;;;33.48;56.76
18813;BME280;9534;51.140;6.296;2022-08-25T10:31:35;100473.50;;;35.36;49.93
18813;BME280;9534;51.140;6.296;2022-08-25T10:35:50;100470.19;;;34.93;48.74
18813;BME280;9534;51.140;6.296;2022-08-25T10:40:07;100468.28;;;35.00;48.71
18813;BME280;9534;51.140;6.296;2022-08-25T10:44:18;100467.09;;;34.63;49.40
18813;BME280;9534;51.140;6.296;2022-08-25T10:48:58;100462.44;;;35.12;47.84
18813;BME280;9534;51.140;6.296;2022-08-25T10:53:17;100450.31;;;34.39;50.41
18813;BME280;9534;51.140;6.296;2022-08-25T10:57:31;100436.00;;;33.83;50.58
18813;BME280;9534;51.140;6.296;2022-08-25T11:01:45;100434.47;;;34.38;49.38
18813;BME280;9534;51.140;6.296;2022-08-25T11:05:58;100430.59;;;34.65;47.78
18813;BME280;9534;51.140;6.296;2022-08-25T11:10:07;100426.69;;;34.92;49.36
18813;BME280;9534;51.140;6.296;2022-08-25T11:14:17;100409.72;;;33.55;49.35
18813;BME280;9534;51.140;6.296;2022-08-25T11:18:24;100420.22;;;36.11;44.15
18813;BME280;9534;51.140;6.296;2022-08-25T11:22:38;100409.34;;;35.42;44.14
18813;BME280;9534;51.140;6.296;2022-08-25T11:26:48;100404.63;;;35.08;45.84
18813;BME280;9534;51.140;6.296;2022-08-25T11:30:55;100402.44;;;34.41;46.66
18813;BME280;9534;51.140;6.296;2022-08-25T11:35:02;100399.94;;;35.19;43.98
18813;BME280;9534;51.140;6.296;2022-08-25T11:39:14;100404.28;;;34.91;45.14
18813;BME280;9534;51.140;6.296;2022-08-25T11:43:32;100402.00;;;36.48;43.14
18813;BME280;9534;51.140;6.296;2022-08-25T11:47:55;100395.84;;;36.43;44.85
18813;BME280;9534;51.140;6.296;2022-08-25T11:52:04;100396.00;;;36.89;44.20
18813;BME280;9534;51.140;6.296;2022-08-25T11:56:12;100398.03;;;36.53;38.63
18813;BME280;9534;51.140;6.296;2022-08-25T12:00:38;100388.50;;;35.16;39.88
18813;BME280;9534;51.140;6.296;2022-08-25T12:04:42;100380.84;;;36.16;40.14
18813;BME280;9534;51.140;6.296;2022-08-25T12:08:49;100384.59;;;36.89;37.67
18813;BME280;9534;51.140;6.296;2022-08-25T12:13:01;100386.94;;;36.48;39.54
18813;BME280;9534;51.140;6.296;2022-08-25T12:17:26;100382.06;;;37.17;36.14
18813;BME280;9534;51.140;6.296;2022-08-25T12:21:40;100365.72;;;37.61;37.50
18813;BME280;9534;51.140;6.296;2022-08-25T12:25:49;100355.41;;;36.67;39.27
18813;BME280;9534;51.140;6.296;2022-08-25T12:30:00;100342.75;;;34.41;41.48
18813;BME280;9534;51.140;6.296;2022-08-25T12:38:35;100361.63;;;38.16;36.94
18813;BME280;9534;51.140;6.296;2022-08-25T12:42:45;100347.13;;;36.91;36.63
18813;BME280;9534;51.140;6.296;2022-08-25T12:47:06;100332.91;;;34.99;40.50
18813;BME280;9534;51.140;6.296;2022-08-25T12:51:17;100347.44;;;38.44;37.06
18813;BME280;9534;51.140;6.296;2022-08-25T12:55:21;100340.59;;;37.88;37.67
18813;BME280;9534;51.140;6.296;2022-08-25T12:59:34;100331.41;;;36.71;39.84
18813;BME280;9534;51.140;6.296;2022-08-25T13:03:56;100350.66;;;38.32;30.25
18813;BME280;9534;51.140;6.296;2022-08-25T13:08:22;100336.75;;;36.40;30.94
18813;BME280;9534;51.140;6.296;2022-08-25T13:12:39;100355.13;;;37.65;29.55
18813;BME280;9534;51.140;6.296;2022-08-25T13:16:56;100340.00;;;38.22;29.09
18813;BME280;9534;51.140;6.296;2022-08-25T13:21:10;100331.16;;;37.26;32.41
18813;BME280;9534;51.140;6.296;2022-08-25T13:25:18;100338.75;;;38.20;30.93
18813;BME280;9534;51.140;6.296;2022-08-25T13:29:27;100323.91;;;39.17;30.35
18813;BME280;9534;51.140;6.296;2022-08-25T13:33:49;100314.50;;;37.35;32.25
18813;BME280;9534;51.140;6.296;2022-08-25T13:38:15;100319.66;;;37.70;30.66
18813;BME280;9534;51.140;6.296;2022-08-25T13:42:18;100323.75;;;38.47;30.68
18813;BME280;9534;51.140;6.296;2022-08-25T13:46:29;100316.56;;;39.37;29.56
18813;BME280;9534;51.140;6.296;2022-08-25T13:50:38;100309.19;;;39.46;28.61
18813;BME280;9534;51.140;6.296;2022-08-25T13:54:46;100323.78;;;40.18;26.71
18813;BME280;9534;51.140;6.296;2022-08-25T13:58:50;100299.34;;;39.51;28.34
18813;BME280;9534;51.140;6.296;2022-08-25T14:02:58;100296.22;;;37.43;30.61
18813;BME280;9534;51.140;6.296;2022-08-25T14:07:13;100283.41;;;37.27;30.60
18813;BME280;9534;51.140;6.296;2022-08-25T14:11:29;100288.28;;;36.76;29.77
18813;BME280;9534;51.140;6.296;2022-08-25T14:15:33;100283.56;;;37.48;28.69
18813;BME280;9534;51.140;6.296;2022-08-25T14:19:44;100261.66;;;36.29;29.59
18813;BME280;9534;51.140;6.296;2022-08-25T14:23:48;100271.16;;;36.76;29.26
18813;BME280;9534;51.140;6.296;2022-08-25T14:27:58;100273.41;;;37.00;29.62
18813;BME280;9534;51.140;6.296;2022-08-25T14:32:12;100265.09;;;36.81;29.50
18813;BME280;9534;51.140;6.296;2022-08-25T14:36:17;100264.50;;;37.59;29.47
18813;BME280;9534;51.140;6.296;2022-08-25T14:40:21;100267.53;;;37.29;29.27
18813;BME280;9534;51.140;6.296;2022-08-25T14:44:26;100266.81;;;37.43;28.77
18813;BME280;9534;51.140;6.296;2022-08-25T14:48:31;100274.63;;;38.17;28.23
18813;BME280;9534;51.140;6.296;2022-08-25T14:52:37;100251.53;;;36.71;29.12
18813;BME280;9534;51.140;6.296;2022-08-25T14:56:40;100248.19;;;36.26;30.40
18813;BME280;9534;51.140;6.296;2022-08-25T15:00:46;100250.25;;;37.08;29.55
18813;BME280;9534;51.140;6.296;2022-08-25T15:04:51;100245.88;;;37.21;29.48
18813;BME280;9534;51.140;6.296;2022-08-25T15:08:56;100263.34;;;39.36;26.78
18813;BME280;9534;51.140;6.296;2022-08-25T15:13:12;100258.03;;;39.24;26.45
18813;BME280;9534;51.140;6.296;2022-08-25T15:17:17;100255.16;;;39.45;27.32
18813;BME280;9534;51.140;6.296;2022-08-25T15:21:20;100252.16;;;38.22;27.28
18813;BME280;9534;51.140;6.296;2022-08-25T15:25:23;100258.38;;;39.71;26.17
18813;BME280;9534;51.140;6.296;2022-08-25T15:29:28;100248.63;;;39.13;26.13
18813;BME280;9534;51.140;6.296;2022-08-25T15:33:34;100255.97;;;40.55;25.88
18813;BME280;9534;51.140;6.296;2022-08-25T15:37:37;100244.53;;;39.17;27.54
18813;BME280;9534;51.140;6.296;2022-08-25T15:41:42;100239.00;;;37.29;29.05
18813;BME280;9534;51.140;6.296;2022-08-25T15:45:47;100235.19;;;37.11;29.57
18813;BME280;9534;51.140;6.296;2022-08-25T15:50:02;100239.56;;;39.66;27.12
18813;BME280;9534;51.140;6.296;2022-08-25T15:54:06;100236.72;;;40.52;26.90
18813;BME280;9534;51.140;6.296;2022-08-25T15:58:10;100235.78;;;39.97;26.36
18813;BME280;9534;51.140;6.296;2022-08-25T16:02:13;100230.59;;;39.37;26.93
18813;BME280;9534;51.140;6.296;2022-08-25T16:06:18;100227.91;;;37.92;29.18
18813;BME280;9534;51.140;6.296;2022-08-25T16:10:21;100210.88;;;36.81;30.83
18813;BME280;9534;51.140;6.296;2022-08-25T16:14:25;100212.31;;;37.69;29.71
18813;BME280;9534;51.140;6.296;2022-08-25T16:18:30;100210.38;;;37.22;30.76
18813;BME280;9534;51.140;6.296;2022-08-25T16:22:35;100208.22;;;37.05;30.67
18813;BME280;9534;51.140;6.296;2022-08-25T16:26:38;100205.28;;;36.52;30.80
18813;BME280;9534;51.140;6.296;2022-08-25T16:30:49;100196.38;;;36.17;31.60
18813;BME280;9534;51.140;6.296;2022-08-25T16:34:53;100196.00;;;35.85;32.07
18813;BME280;9534;51.140;6.296;2022-08-25T16:38:58;100200.56;;;37.20;31.10
18813;BME280;9534;51.140;6.296;2022-08-25T16:43:02;100190.28;;;35.85;32.61
18813;BME280;9534;51.140;6.296;2022-08-25T16:47:06;100199.88;;;36.07;32.43
18813;BME280;9534;51.140;6.296;2022-08-25T16:51:11;100196.03;;;35.59;33.11
18813;BME280;9534;51.140;6.296;2022-08-25T16:55:16;100193.78;;;35.72;32.41
18813;BME280;9534;51.140;6.296;2022-08-25T16:59:19;100201.03;;;36.75;31.88
18813;BME280;9534;51.140;6.296;2022-08-25T17:03:24;100182.19;;;34.32;33.73
18813;BME280;9534;51.140;6.296;2022-08-25T17:07:33;100185.75;;;33.69;35.95
18813;BME280;9534;51.140;6.296;2022-08-25T17:11:42;100186.34;;;33.59;36.46
18813;BME280;9534;51.140;6.296;2022-08-25T17:15:47;100177.66;;;33.33;38.76
18813;BME280;9534;51.140;6.296;2022-08-25T17:19:53;100177.91;;;33.43;38.39
18813;BME280;9534;51.140;6.296;2022-08-25T17:23:56;100179.50;;;33.79;38.22
18813;BME280;9534;51.140;6.296;2022-08-25T17:28:02;100185.59;;;34.00;37.33
18813;BME280;9534;51.140;6.296;2022-08-25T17:32:06;100185.31;;;33.48;40.38
18813;BME280;9534;51.140;6.296;2022-08-25T17:36:12;100183.97;;;33.99;38.32
18813;BME280;9534;51.140;6.296;2022-08-25T17:40:19;100185.13;;;33.41;40.33
18813;BME280;9534;51.140;6.296;2022-08-25T17:44:28;100191.66;;;33.41;40.75
18813;BME280;9534;51.140;6.296;2022-08-25T17:48:32;100187.56;;;32.89;42.57
18813;BME280;9534;51.140;6.296;2022-08-25T17:52:36;100192.63;;;32.80;43.60
18813;BME280;9534;51.140;6.296;2022-08-25T17:56:40;100185.22;;;32.02;46.03
18813;BME280;9534;51.140;6.296;2022-08-25T18:16:27;100179.81;;;29.46;62.95
18813;BME280;9534;51.140;6.296;2022-08-25T18:20:34;100189.63;;;28.79;69.07
18813;BME280;9534;51.140;6.296;2022-08-25T18:24:38;100185.84;;;28.75;67.96
18813;BME280;9534;51.140;6.296;2022-08-25T18:28:42;100181.66;;;28.52;70.68
18813;BME280;9534;51.140;6.296;2022-08-25T18:32:48;100182.56;;;28.27;74.16
18813;BME280;9534;51.140;6.296;2022-08-25T18:36:55;100179.06;;;28.30;71.32
18813;BME280;9534;51.140;6.296;2022-08-25T18:41:05;100180.03;;;28.34;70.71
18813;BME280;9534;51.140;6.296;2022-08-25T18:45:09;100174.59;;;28.29;73.10
18813;BME280;9534;51.140;6.296;2022-08-25T18:49:17;100183.19;;;27.95;74.44
18813;BME280;9534;51.140;6.296;2022-08-25T18:53:22;100179.06;;;27.67;78.10
18813;BME280;9534;51.140;6.296;2022-08-25T18:57:38;100186.22;;;27.31;85.42
18813;BME280;9534;51.140;6.296;2022-08-25T19:01:43;100181.53;;;26.92;85.23
18813;BME280;9534;51.140;6.296;2022-08-25T19:05:48;100186.31;;;26.83;87.57
18813;BME280;9534;51.140;6.296;2022-08-25T19:09:58;100187.56;;;26.60;89.78
18813;BME280;9534;51.140;6.296;2022-08-25T19:14:01;100181.41;;;26.41;91.60
18813;BME280;9534;51.140;6.296;2022-08-25T19:18:13;100189.75;;;26.25;89.35
18813;BME280;9534;51.140;6.296;2022-08-25T19:22:19;100184.06;;;26.08;90.31
18813;BME280;9534;51.140;6.296;2022-08-25T19:26:42;100193.63;;;26.07;90.37
18813;BME280;9534;51.140;6.296;2022-08-25T19:30:46;100185.91;;;25.90;92.45
18813;BME280;9534;51.140;6.296;2022-08-25T19:34:51;100189.69;;;25.64;95.02
18813;BME280;9534;51.140;6.296;2022-08-25T19:39:01;100185.50;;;25.53;95.91
18813;BME280;9534;51.140;6.296;2022-08-25T19:43:05;100188.31;;;25.31;99.50
18813;BME280;9534;51.140;6.296;2022-08-25T19:53:03;100181.38;;;25.15;100.00
18813;BME280;9534;51.140;6.296;2022-08-25T19:57:15;100189.28;;;25.13;100.00
18813;BME280;9534;51.140;6.296;2022-08-25T20:01:38;100188.88;;;25.06;100.00
18813;BME280;9534;51.140;6.296;2022-08-25T20:05:43;100195.75;;;25.00;100.00
18813;BME280;9534;51.140;6.296;2022-08-25T20:09:46;100199.50;;;24.82;100.00
18813;BME280;9534;51.140;6.296;2022-08-25T20:13:52;100200.13;;;24.79;100.00
18813;BME280;9534;51.140;6.296;2022-08-25T20:17:55;100201.53;;;24.68;100.00
18813;BME280;9534;51.140;6.296;2022-08-25T20:21:58;100197.06;;;24.67;100.00
18813;BME280;9534;51.140;6.296;2022-08-25T20:26:01;100193.09;;;24.55;100.00
18813;BME280;9534;51.140;6.296;2022-08-25T20:30:08;100193.53;;;24.48;100.00
18813;BME280;9534;51.140;6.296;2022-08-25T20:34:12;100188.97;;;24.52;100.00
18813;BME280;9534;51.140;6.296;2022-08-25T20:38:15;100200.56;;;24.32;100.00
18813;BME280;9534;51.140;6.296;2022-08-25T20:42:18;100205.56;;;24.22;100.00
18813;BME280;9534;51.140;6.296;2022-08-25T20:46:23;100201.38;;;24.19;100.00
18813;BME280;9534;51.140;6.296;2022-08-25T20:50:26;100208.34;;;24.22;100.00
18813;BME280;9534;51.140;6.296;2022-08-25T20:54:29;100216.31;;;24.28;100.00
18813;BME280;9534;51.140;6.296;2022-08-25T20:58:34;100215.91;;;24.48;100.00
18813;BME280;9534;51.140;6.296;2022-08-25T21:02:39;100220.09;;;24.64;100.00
18813;BME280;9534;51.140;6.296;2022-08-25T21:06:43;100221.91;;;24.28;100.00
18813;BME280;9534;51.140;6.296;2022-08-25T21:10:46;100214.84;;;24.58;100.00
18813;BME280;9534;51.140;6.296;2022-08-25T21:14:50;100220.25;;;24.81;100.00
18813;BME280;9534;51.140;6.296;2022-08-25T21:18:55;100212.13;;;24.93;100.00
18813;BME280;9534;51.140;6.296;2022-08-25T21:22:58;100220.25;;;24.54;100.00
18813;BME280;9534;51.140;6.296;2022-08-25T21:27:03;100223.78;;;24.46;100.00
18813;BME280;9534;51.140;6.296;2022-08-25T21:31:07;100221.94;;;24.69;100.00
18813;BME280;9534;51.140;6.296;2022-08-25T21:35:11;100228.13;;;24.52;100.00
18813;BME280;9534;51.140;6.296;2022-08-25T21:39:14;100236.59;;;24.20;100.00
18813;BME280;9534;51.140;6.296;2022-08-25T21:43:17;100234.66;;;24.34;100.00
18813;BME280;9534;51.140;6.296;2022-08-25T21:47:21;100250.72;;;24.42;100.00
18813;BME280;9534;51.140;6.296;2022-08-25T21:51:28;100258.50;;;24.45;100.00
18813;BME280;9534;51.140;6.296;2022-08-25T21:55:36;100257.66;;;24.31;100.00
18813;BME280;9534;51.140;6.296;2022-08-25T21:59:42;100257.66;;;24.18;100.00
18813;BME280;9534;51.140;6.296;2022-08-25T22:03:46;100264.25;;;23.76;100.00
18813;BME280;9534;51.140;6.296;2022-08-25T22:07:51;100268.78;;;23.73;100.00
18813;BME280;9534;51.140;6.296;2022-08-25T22:11:54;100267.88;;;23.59;100.00